Time;durP1;ratioP1;P1;durP2;ratioP2;P2;SDS_P1;SDS_P2;PMS_P1;PMS_P2;Temp;Humidity;BMP_temperature;BMP_pressure;BME280_temperature;BME280_humidity;BME280_pressure;Samples;Min_cycle;Max_cycle;Signal;HPM_P1;HPM_P2
2023/06/08 00:02:11;;;;;;;15.48;8.07;;;19.90;72.20;;;19.25;57.67;100719.72;4970626;28;20483;-85
2023/06/08 00:04:40;;;;;;;12.00;7.70;;;19.90;72.10;;;19.25;57.57;100715.09;4989996;28;20057;-85
2023/06/08 00:07:10;;;;;;;14.38;8.25;;;19.90;72.30;;;19.26;58.16;100724.03;4987629;28;20407;-84
2023/06/08 00:09:38;;;;;;;12.17;8.23;;;19.90;72.30;;;19.25;57.95;100717.00;5003250;28;20439;-85
2023/06/08 00:12:06;;;;;;;16.65;8.05;;;19.90;72.50;;;19.26;57.96;100713.22;4982614;28;20050;-85
2023/06/08 00:14:35;;;;;;;13.52;7.95;;;19.90;72.40;;;19.24;57.89;100713.47;4989437;28;20077;-87
2023/06/08 00:17:05;;;;;;;15.05;8.40;;;20.00;72.50;;;19.23;58.11;100701.03;4981113;23;20053;-77
2023/06/08 00:19:33;;;;;;;15.85;7.95;;;20.00;72.40;;;19.23;58.11;100719.97;4946468;28;20051;-80
2023/06/08 00:22:04;;;;;;;18.98;8.15;;;19.90;72.60;;;19.19;58.30;100705.34;4968641;28;20070;-80
2023/06/08 00:24:31;;;;;;;;;;;19.90;72.50;;;19.17;57.99;100712.06;4970255;28;20121;-80
2023/06/08 00:26:59;;;;;;;14.75;8.05;;;19.90;72.60;;;19.14;58.21;100712.63;4968670;28;19930;-80
2023/06/08 00:29:26;;;;;;;14.90;7.93;;;19.80;72.50;;;19.13;57.97;100711.81;4980185;28;20046;-80
2023/06/08 00:31:53;;;;;;;17.40;8.40;;;19.80;72.50;;;19.11;58.27;100707.72;4971158;28;20644;-80
2023/06/08 00:34:22;;;;;;;17.73;8.13;;;19.80;72.60;;;19.10;58.35;100712.31;4969650;28;20061;-80
2023/06/08 00:36:50;;;;;;;13.88;7.65;;;19.80;72.70;;;19.10;58.04;100708.81;4967560;28;20047;-80
2023/06/08 00:39:18;;;;;;;16.45;9.00;;;19.70;72.70;;;19.08;58.27;100708.25;4962513;28;20380;-80
2023/06/08 00:41:45;;;;;;;15.18;7.97;;;19.70;72.70;;;19.07;58.15;100712.03;4976093;28;20656;-79
2023/06/08 00:44:13;;;;;;;12.50;8.02;;;19.70;72.70;;;19.06;58.30;100705.81;4951439;28;20047;-79
2023/06/08 00:46:40;;;;;;;20.60;7.95;;;19.70;72.80;;;19.05;58.05;100704.19;4969165;28;20082;-80
2023/06/08 00:49:11;;;;;;;20.58;9.10;;;19.70;72.70;;;19.02;57.92;100708.22;4978792;28;20056;-79
2023/06/08 00:51:42;;;;;;;14.73;8.23;;;19.70;72.70;;;19.00;58.21;100713.06;4978777;28;20050;-80
2023/06/08 00:54:12;;;;;;;14.68;8.50;;;19.70;72.70;;;18.98;57.86;100706.28;4972439;28;20089;-80
2023/06/08 00:56:41;;;;;;;18.40;8.68;;;19.60;72.50;;;18.96;58.37;100706.56;4968118;28;20058;-79
2023/06/08 00:59:11;;;;;;;16.85;8.32;;;19.60;72.70;;;18.96;57.96;100703.84;4959807;28;20050;-80
2023/06/08 01:01:40;;;;;;;18.30;8.73;;;19.60;72.50;;;18.97;58.14;100700.06;4983353;28;20656;-79
2023/06/08 01:04:08;;;;;;;13.93;8.55;;;19.60;72.60;;;18.97;57.90;100705.47;4951400;28;20047;-79
2023/06/08 01:06:48;;;;;;;17.67;8.10;;;19.60;72.50;;;18.94;58.02;100706.03;4974212;28;20045;-79
2023/06/08 01:09:28;;;;;;;14.10;8.15;;;19.60;72.70;;;18.95;58.31;100704.94;4969555;28;20798;-80
2023/06/08 01:12:10;;;;;;;13.68;8.52;;;19.60;72.70;;;18.94;58.17;100703.31;4974606;28;20459;-80
2023/06/08 01:14:50;;;;;;;18.35;8.43;;;19.60;72.60;;;18.92;58.04;100699.22;4944267;28;20042;-79
2023/06/08 01:17:23;;;;;;;16.60;8.90;;;19.60;72.50;;;18.90;57.67;100715.72;4968467;28;20130;-79
2023/06/08 01:20:12;;;;;;;24.95;8.52;;;19.60;72.20;;;18.88;57.53;100700.81;4962924;28;20083;-79
2023/06/08 01:22:56;;;;;;;16.52;8.30;;;19.50;72.30;;;18.85;57.56;100707.56;4959204;28;20054;-79
2023/06/08 01:25:29;;;;;;;16.75;8.23;;;19.50;72.20;;;18.83;57.82;100698.09;4979664;28;20086;-79
2023/06/08 01:28:12;;;;;;;19.95;9.45;;;19.50;72.10;;;18.79;57.14;100695.13;4982750;28;20046;-79
2023/06/08 01:30:40;;;;;;;22.58;8.75;;;19.50;71.80;;;18.76;57.27;100704.53;4978267;28;20193;-80
2023/06/08 01:33:11;;;;;;;16.02;8.30;;;19.50;71.80;;;18.74;57.17;100700.50;4954430;28;20046;-79
2023/06/08 01:35:40;;;;;;;19.30;8.68;;;19.40;71.60;;;18.69;56.99;100703.13;4983533;28;20097;-79
2023/06/08 01:38:17;;;;;;;21.75;8.90;;;19.40;71.40;;;18.65;57.25;100704.72;4972121;28;20046;-79
2023/06/08 01:40:55;;;;;;;18.70;7.85;;;19.30;71.50;;;18.62;57.05;100697.09;4970772;28;20130;-79
2023/06/08 01:43:25;;;;;;;14.35;8.68;;;19.30;71.50;;;18.61;56.95;100698.19;4971638;28;20053;-80
2023/06/08 01:45:57;;;;;;;18.33;8.52;;;19.30;71.50;;;18.60;56.90;100694.69;4986053;28;20156;-79
2023/06/08 01:48:27;;;;;;;18.15;8.13;;;19.30;71.50;;;18.57;57.22;100689.78;4972956;28;20134;-79
2023/06/08 01:50:57;;;;;;;17.85;8.10;;;19.30;71.50;;;18.58;57.15;100687.88;4954771;28;20076;-79
2023/06/08 01:53:24;;;;;;;19.15;8.57;;;19.20;71.50;;;18.57;56.91;100688.97;4974196;28;20042;-79
2023/06/08 01:55:53;;;;;;;20.30;8.70;;;19.20;71.50;;;18.58;57.09;100690.59;4983319;28;20117;-79
2023/06/08 01:58:20;;;;;;;18.73;8.45;;;19.20;71.70;;;18.57;57.18;100689.78;4980097;28;20050;-79
2023/06/08 02:00:47;;;;;;;19.80;8.43;;;19.20;71.50;;;18.56;57.04;100693.56;4969451;28;20518;-79
2023/06/08 02:03:15;;;;;;;16.33;8.48;;;19.20;71.40;;;18.57;57.04;100688.97;4972658;28;20073;-79
2023/06/08 02:05:42;;;;;;;21.58;8.55;;;19.20;71.30;;;18.52;56.68;100685.16;4983720;28;20069;-79
2023/06/08 02:08:09;;;;;;;17.55;8.80;;;19.20;71.30;;;18.51;56.90;100675.44;4971759;28;20291;-79
2023/06/08 02:10:37;;;;;;;18.60;8.82;;;19.20;71.40;;;18.50;56.67;100684.59;4952448;28;20078;-79
2023/06/08 02:13:07;;;;;;;17.50;8.48;;;19.20;71.20;;;18.47;56.91;100679.72;4952969;28;20587;-79
2023/06/08 02:15:34;;;;;;;18.73;8.70;;;19.20;71.40;;;18.46;56.63;100682.69;4947113;28;20519;-79
2023/06/08 02:18:01;;;;;;;16.65;8.82;;;19.10;71.30;;;18.44;56.85;100679.41;4970492;28;20051;-80
2023/06/08 02:20:33;;;;;;;23.45;9.25;;;19.10;71.50;;;18.42;56.98;100678.84;4953622;28;20054;-79
2023/06/08 02:23:00;;;;;;;20.85;8.90;;;19.10;71.40;;;18.39;56.81;100680.19;4978343;28;20050;-79
2023/06/08 02:25:28;;;;;;;16.42;8.07;;;19.10;71.30;;;18.38;56.70;100675.84;4979121;28;20499;-80
2023/06/08 02:27:56;;;;;;;19.27;8.52;;;19.10;71.30;;;18.37;57.02;100676.94;4954522;28;20070;-79
2023/06/08 02:30:25;;;;;;;19.27;8.88;;;19.00;71.30;;;18.34;56.57;100680.13;4969985;28;20140;-80
2023/06/08 02:32:53;;;;;;;19.90;8.90;;;19.00;71.10;;;18.32;56.71;100673.38;4976794;28;20042;-79
2023/06/08 02:35:21;;;;;;;18.58;8.90;;;19.00;71.10;;;18.31;56.77;100663.66;4980058;28;20070;-79
2023/06/08 02:37:48;;;;;;;19.27;8.55;;;19.00;71.10;;;18.30;56.71;100681.75;4966578;28;20133;-80
2023/06/08 02:40:15;;;;;;;22.45;8.57;;;19.00;71.10;;;18.29;56.76;100682.78;4979193;28;20507;-79
2023/06/08 02:42:43;;;;;;;23.30;9.65;;;19.00;71.30;;;18.25;56.61;100673.56;4966122;28;20069;-79
2023/06/08 02:45:14;;;;;;;17.13;8.52;;;18.90;71.10;;;18.23;56.63;100678.44;4970924;28;20050;-79
2023/06/08 02:47:43;;;;;;;16.48;8.85;;;18.90;71.30;;;18.21;56.65;100667.09;4954081;28;20069;-79
2023/06/08 02:50:10;;;;;;;20.27;8.73;;;18.90;71.20;;;18.19;56.83;100675.41;4969682;28;20146;-79
2023/06/08 02:52:38;;;;;;;17.52;8.80;;;18.90;71.30;;;18.18;56.93;100676.50;4979659;28;20496;-80
2023/06/08 02:55:06;;;;;;;15.13;7.80;;;18.90;71.30;;;18.17;56.81;100657.88;4971585;28;20043;-79
2023/06/08 02:57:36;;;;;;;21.08;9.35;;;18.90;71.30;;;18.15;56.94;100676.19;4954070;28;20524;-79
2023/06/08 03:00:10;;;;;;;17.85;8.80;;;18.80;71.20;;;18.13;56.93;100672.94;4953195;28;20553;-79
2023/06/08 03:02:54;;;;;;;17.88;8.55;;;18.80;71.20;;;18.12;56.70;100671.31;4962652;28;20093;-79
2023/06/08 03:05:24;;;;;;;16.08;8.88;;;18.80;71.20;;;18.10;56.77;100671.56;4977734;28;20055;-80
2023/06/08 03:07:52;;;;;;;16.17;8.70;;;18.80;71.10;;;18.09;57.02;100666.41;4953133;28;20046;-79
2023/06/08 03:10:20;;;;;;;19.52;8.50;;;18.80;71.30;;;18.06;56.84;100666.94;4954601;28;20787;-79
2023/06/08 03:12:48;;;;;;;16.20;8.63;;;18.70;71.30;;;18.02;56.84;100664.75;4965504;28;20086;-79
2023/06/08 03:15:22;;;;;;;18.20;9.57;;;18.70;71.30;;;18.02;57.07;100667.44;4966524;28;20148;-79
2023/06/08 03:17:51;;;;;;;15.95;9.05;;;18.70;71.30;;;17.97;56.69;100659.31;4981660;28;20703;-79
2023/06/08 03:20:20;;;;;;;18.77;8.63;;;18.70;71.30;;;17.95;56.97;100655.22;4961875;28;20035;-79
2023/06/08 03:22:57;;;;;;;18.92;9.05;;;18.70;71.50;;;17.95;57.20;100652.53;4980435;28;20929;-79
2023/06/08 03:25:26;;;;;;;15.85;9.20;;;18.60;71.50;;;17.94;57.22;100659.81;4953208;28;20129;-79
2023/06/08 03:27:55;;;;;;;23.85;10.00;;;18.70;71.60;;;17.93;57.26;100651.97;4969642;28;20054;-79
2023/06/08 03:30:22;;;;;;;17.65;9.15;;;18.60;71.50;;;17.92;56.93;100655.75;4971436;28;20051;-79
2023/06/08 03:32:52;;;;;;;16.10;9.43;;;18.60;71.50;;;17.90;56.89;100657.88;4965337;28;20207;-79
2023/06/08 03:35:28;;;;;;;22.08;9.48;;;18.60;71.60;;;17.90;57.04;100664.06;4952306;28;20110;-79
2023/06/08 03:38:27;;;;;;;20.60;9.63;;;18.60;71.50;;;17.86;57.12;100663.00;4968913;28;20094;-79
2023/06/08 03:41:00;;;;;;;17.08;9.40;;;18.60;71.60;;;17.84;57.15;100659.72;4974473;28;20056;-79
2023/06/08 03:43:28;;;;;;;24.60;10.18;;;18.50;71.70;;;17.83;57.13;100665.38;4960277;28;20750;-79
2023/06/08 03:45:56;;;;;;;23.67;9.98;;;18.50;71.70;;;17.82;57.02;100661.06;4953133;28;20547;-79
2023/06/08 03:48:25;;;;;;;18.98;9.07;;;18.50;71.70;;;17.79;57.04;100665.06;4953156;28;20422;-79
2023/06/08 03:50:55;;;;;;;20.42;10.25;;;18.50;71.70;;;17.78;56.98;100657.22;4956996;28;20050;-79
2023/06/08 03:53:23;;;;;;;20.48;9.68;;;18.50;71.60;;;17.72;57.04;100664.44;4961388;28;20109;-79
2023/06/08 03:55:50;;;;;;;17.88;9.52;;;18.40;71.60;;;17.71;57.01;100654.69;4952500;28;20082;-80
2023/06/08 03:58:17;;;;;;;17.25;8.95;;;18.40;71.70;;;17.69;57.14;100656.81;4952749;28;20730;-79
2023/06/08 04:00:49;;;;;;;22.08;10.35;;;18.40;71.70;;;17.68;57.37;100657.91;4956922;28;20054;-79
2023/06/08 04:03:16;;;;;;;25.70;9.80;;;18.40;71.80;;;17.66;57.08;100651.94;4980352;28;20054;-79
2023/06/08 04:05:43;;;;;;;18.85;8.63;;;18.30;71.70;;;17.63;57.10;100653.25;4976165;28;20046;-79
2023/06/08 04:08:12;;;;;;;21.60;10.00;;;18.30;71.90;;;17.59;57.27;100652.13;4952305;28;20455;-79
2023/06/08 04:10:39;;;;;;;17.50;9.57;;;18.30;71.90;;;17.58;57.14;100655.09;4955015;28;20494;-79
2023/06/08 04:13:07;;;;;;;21.30;9.02;;;18.20;71.80;;;17.56;57.12;100663.41;4961775;28;20043;-79
2023/06/08 04:15:37;;;;;;;24.38;9.30;;;18.20;71.90;;;17.55;57.17;100650.19;4949701;28;20053;-79
2023/06/08 04:18:05;;;;;;;18.85;10.00;;;18.20;71.90;;;17.54;57.19;100653.97;4983516;28;20570;-79
2023/06/08 04:20:33;;;;;;;19.27;9.65;;;18.10;71.90;;;17.52;57.32;100654.22;4977851;28;20773;-79
2023/06/08 04:23:01;;;;;;;23.95;9.50;;;18.20;72.00;;;17.50;57.21;100659.84;4978953;28;20491;-79
2023/06/08 04:25:30;;;;;;;22.63;9.57;;;18.20;72.00;;;17.50;57.31;100654.47;4952626;28;20118;-79
2023/06/08 04:27:57;;;;;;;19.35;9.75;;;18.10;72.20;;;17.50;57.38;100659.84;4967894;28;20101;-79
2023/06/08 04:30:26;;;;;;;18.83;9.80;;;18.10;72.10;;;17.51;57.27;100660.66;4970620;28;20042;-79
2023/06/08 04:32:55;;;;;;;20.55;9.85;;;18.10;72.10;;;17.50;57.32;100657.16;4963795;28;20097;-79
2023/06/08 04:35:23;;;;;;;21.85;9.57;;;18.20;71.90;;;17.51;57.32;100658.78;4967464;28;20058;-79
2023/06/08 04:37:50;;;;;;;19.60;9.30;;;18.10;71.90;;;17.50;56.99;100659.84;4951329;28;20062;-79
2023/06/08 04:40:19;;;;;;;21.67;10.18;;;18.10;71.90;;;17.51;57.40;100669.56;4974573;28;20039;-79
2023/06/08 04:42:49;;;;;;;19.75;9.20;;;18.20;72.20;;;17.49;57.29;100660.13;4980183;28;20238;-79
2023/06/08 04:45:18;;;;;;;19.98;9.30;;;18.20;72.10;;;17.48;57.33;100656.59;4969498;28;20056;-79
2023/06/08 04:47:46;;;;;;;16.30;9.52;;;18.10;72.10;;;17.48;57.24;100662.00;4951400;28;20078;-79
2023/06/08 04:50:14;;;;;;;19.05;9.40;;;18.10;72.00;;;17.48;57.17;100667.41;4969718;28;20043;-79
2023/06/08 04:52:41;;;;;;;19.02;10.00;;;18.10;72.10;;;17.46;57.01;100668.69;4977486;28;20074;-79
2023/06/08 04:55:13;;;;;;;18.40;9.82;;;18.10;72.00;;;17.42;57.40;100654.09;4966008;28;20409;-79
2023/06/08 04:57:41;;;;;;;20.20;9.30;;;18.10;72.20;;;17.49;57.41;100658.22;4975021;28;20153;-79
2023/06/08 05:00:13;;;;;;;21.23;10.50;;;18.10;72.40;;;17.49;57.51;100663.63;4947792;28;20121;-79
2023/06/08 05:02:40;;;;;;;17.83;9.60;;;18.10;72.40;;;17.51;57.65;100666.06;4960600;28;20499;-79
2023/06/08 05:05:08;;;;;;;22.10;10.50;;;18.10;72.50;;;17.50;57.62;100656.34;4964393;28;20512;-79
2023/06/08 05:07:35;;;;;;;18.98;10.25;;;18.10;72.30;;;17.51;57.57;100653.38;4965715;28;20047;-79
2023/06/08 05:10:03;;;;;;;21.98;10.45;;;18.10;72.40;;;17.51;57.61;100655.28;4950985;28;20045;-79
2023/06/08 05:12:30;;;;;;;21.60;10.00;;;18.20;72.50;;;17.51;57.57;100655.28;4983717;28;20510;-79
2023/06/08 05:14:57;;;;;;;21.05;10.15;;;18.10;72.50;;;17.51;57.56;100657.97;4967266;28;20049;-79
2023/06/08 05:17:26;;;;;;;22.02;10.13;;;18.20;72.50;;;17.50;57.84;100648.25;4969207;28;20042;-79
2023/06/08 05:19:53;;;;;;;21.80;10.38;;;18.20;72.50;;;17.51;57.89;100649.88;4967433;28;20039;-79
2023/06/08 05:22:20;;;;;;;22.55;10.85;;;18.20;72.70;;;17.52;57.96;100656.94;4983893;28;20071;-79
2023/06/08 05:24:47;;;;;;;19.65;10.20;;;18.20;72.70;;;17.54;57.99;100664.75;4969316;28;20059;-79
2023/06/08 05:27:14;;;;;;;20.13;10.20;;;18.20;72.80;;;17.54;57.95;100670.16;4968099;28;20125;-79
2023/06/08 05:29:42;;;;;;;20.35;10.70;;;18.20;72.70;;;17.56;57.96;100663.41;4967431;28;20511;-79
2023/06/08 05:32:09;;;;;;;19.35;9.75;;;18.20;72.70;;;17.58;57.86;100661.31;4983177;28;20053;-79
2023/06/08 05:34:38;;;;;;;25.05;10.32;;;18.20;72.80;;;17.63;57.92;100657.84;4967713;28;20062;-82
2023/06/08 05:37:05;;;;;;;25.48;9.65;;;18.30;72.70;;;17.65;57.98;100659.22;4969235;28;20477;-81
2023/06/08 05:39:33;;;;;;;17.52;9.55;;;18.30;72.90;;;17.67;58.18;100659.78;4967928;28;20042;-78
2023/06/08 05:42:00;;;;;;;18.58;10.73;;;18.30;73.10;;;17.66;57.79;100654.63;4972771;28;20049;-78
2023/06/08 05:44:28;;;;;;;19.85;10.20;;;18.30;72.70;;;17.65;57.85;100661.91;4970465;28;20113;-78
2023/06/08 05:46:55;;;;;;;16.85;10.10;;;18.30;72.70;;;17.65;57.90;100655.69;4968465;28;20050;-79
2023/06/08 05:49:22;;;;;;;24.65;10.93;;;18.30;72.70;;;17.64;57.97;100664.88;4967218;28;20157;-78
2023/06/08 05:51:51;;;;;;;24.45;10.40;;;18.30;72.90;;;17.64;58.14;100659.47;4962276;28;20053;-78
2023/06/08 05:54:18;;;;;;;22.75;11.30;;;18.30;73.00;;;17.65;58.13;100655.69;4976192;28;20046;-78
2023/06/08 05:56:45;;;;;;;20.50;11.43;;;18.30;72.80;;;17.63;58.09;100653.25;4976059;28;20047;-78
2023/06/08 05:59:12;;;;;;;26.27;12.25;;;18.30;72.70;;;17.63;57.87;100658.66;4967743;28;20126;-78
2023/06/08 06:01:39;;;;;;;25.70;12.13;;;18.30;72.70;;;17.64;58.15;100649.50;4979589;28;20051;-78
2023/06/08 06:04:07;;;;;;;22.20;10.98;;;18.30;72.90;;;17.65;58.18;100653.00;4979753;28;20053;-79
2023/06/08 06:06:35;;;;;;;20.35;10.98;;;18.30;72.90;;;17.64;58.19;100649.50;4970809;28;20125;-78
2023/06/08 06:09:03;;;;;;;24.42;12.02;;;18.30;73.00;;;17.63;58.39;100653.25;4970719;28;20039;-79
2023/06/08 06:11:31;;;;;;;21.83;10.98;;;18.30;73.00;;;17.65;58.24;100658.41;4988663;28;20121;-79
2023/06/08 06:13:59;;;;;;;21.48;12.05;;;18.30;73.10;;;17.64;58.29;100659.47;4984163;28;20142;-78
2023/06/08 06:16:26;;;;;;;21.13;11.23;;;18.30;73.10;;;17.65;58.25;100658.41;4971868;28;20043;-78
2023/06/08 06:18:54;;;;;;;21.77;11.00;;;18.30;73.30;;;17.66;58.18;100655.44;4969368;28;20122;-79
2023/06/08 06:21:21;;;;;;;22.95;11.20;;;18.30;73.10;;;17.69;58.33;100659.53;4979567;28;20042;-78
2023/06/08 06:23:48;;;;;;;20.48;10.80;;;18.30;73.30;;;17.70;58.20;100656.56;4964578;28;20071;-77
2023/06/08 06:26:17;;;;;;;24.38;10.93;;;18.30;73.10;;;17.73;58.83;100653.41;4972021;28;20054;-77
2023/06/08 06:28:44;;;;;;;26.70;10.95;;;18.40;73.70;;;17.71;58.25;100649.28;4971459;28;20051;-77
2023/06/08 06:31:11;;;;;;;20.98;10.48;;;18.40;73.20;;;17.77;58.27;100655.59;4978957;28;20094;-78
2023/06/08 06:33:38;;;;;;;20.73;10.98;;;18.40;73.20;;;17.79;58.12;100653.44;4974626;28;20620;-78
2023/06/08 06:36:06;;;;;;;19.98;10.82;;;18.40;73.10;;;17.84;58.25;100654.31;4971824;28;20042;-79
2023/06/08 06:38:33;;;;;;;22.77;11.15;;;18.40;73.30;;;17.93;58.28;100654.66;4970653;28;20047;-77
2023/06/08 06:41:01;;;;;;;22.17;11.52;;;18.50;73.50;;;18.04;58.46;100655.59;4986665;28;20176;-78
2023/06/08 06:43:29;;;;;;;19.60;10.60;;;18.70;73.50;;;18.21;58.47;100650.88;4985948;28;20142;-78
2023/06/08 06:46:04;;;;;;;23.90;10.73;;;18.80;73.50;;;18.36;58.06;100656.41;4972049;28;20045;-79
2023/06/08 06:48:32;;;;;;;20.88;11.13;;;19.00;73.10;;;18.47;58.00;100660.00;4969669;28;20042;-79
2023/06/08 06:50:59;;;;;;;18.52;10.65;;;19.10;72.90;;;18.59;57.66;100666.00;4971598;28;20044;-78
2023/06/08 06:53:27;;;;;;;18.80;10.80;;;19.20;72.30;;;18.68;57.20;100669.03;4979957;28;20042;-78
2023/06/08 06:55:54;;;;;;;18.85;10.75;;;19.20;72.20;;;18.74;56.71;100673.47;4983528;28;20050;-78
2023/06/08 06:58:22;;;;;;;17.85;10.85;;;19.30;71.50;;;18.79;56.40;100670.78;4972876;28;20757;-78
2023/06/08 07:00:51;;;;;;;24.25;10.82;;;19.40;71.30;;;18.88;56.30;100669.19;4984045;28;20518;-78
2023/06/08 07:03:20;;;;;;;20.08;10.95;;;19.50;71.10;;;19.00;56.37;100667.13;4970729;28;20043;-78
2023/06/08 07:05:49;;;;;;;19.63;10.52;;;19.60;71.00;;;19.15;57.29;100663.69;4969482;28;20125;-78
2023/06/08 07:08:17;;;;;;;21.10;12.10;;;19.70;72.10;;;19.32;58.23;100666.19;4969982;28;20057;-77
2023/06/08 07:10:44;;;;;;;19.10;10.25;;;19.90;73.00;;;19.51;58.35;100661.09;4978487;28;20066;-77
2023/06/08 07:13:11;;;;;;;22.52;10.75;;;20.00;72.60;;;19.58;56.81;100655.47;4969828;28;20089;-77
2023/06/08 07:15:41;;;;;;;18.02;11.00;;;20.20;71.30;;;19.59;56.35;100663.31;4967368;28;20042;-82
2023/06/08 07:18:10;;;;;;;17.20;10.73;;;20.30;70.80;;;19.64;55.93;100657.13;4971388;28;20039;-76
2023/06/08 07:20:37;;;;;;;29.02;11.15;;;20.30;70.30;;;19.63;56.33;100659.03;4972019;28;20770;-76
2023/06/08 07:23:07;;;;;;;18.38;11.23;;;20.30;70.80;;;19.78;55.81;100655.53;4973797;28;20448;-76
2023/06/08 07:25:34;;;;;;;21.98;11.75;;;20.50;70.10;;;19.92;56.10;100659.34;4963682;28;20121;-76
2023/06/08 07:28:01;;;;;;;19.48;11.40;;;20.60;70.10;;;20.01;55.19;100660.44;4968854;28;20468;-76
2023/06/08 07:30:28;;;;;;;20.02;10.50;;;20.60;69.60;;;20.06;55.42;100652.34;4972143;28;20057;-76
2023/06/08 07:32:55;;;;;;;18.27;10.60;;;20.70;69.90;;;20.20;56.29;100649.88;4967818;28;20511;-76
2023/06/08 07:35:24;;;;;;;17.58;10.70;;;20.90;70.40;;;20.36;55.81;100652.63;4968622;28;20047;-77
2023/06/08 07:37:52;;;;;;;16.90;10.48;;;21.00;69.80;;;20.46;55.77;100648.00;4968531;28;20047;-76
2023/06/08 07:40:20;;;;;;;18.27;10.52;;;21.10;69.70;;;20.56;55.06;100652.63;4967986;28;20109;-77
2023/06/08 07:42:47;;;;;;;17.65;10.13;;;21.20;68.70;;;20.66;54.60;100641.75;4967296;28;20400;-76
2023/06/08 07:45:15;;;;;;;19.17;10.52;;;21.40;68.30;;;20.74;54.67;100645.78;4969962;28;20093;-76
2023/06/08 07:47:42;;;;;;;18.27;10.52;;;21.40;68.10;;;20.85;54.79;100639.28;4969601;28;20056;-76
2023/06/08 07:50:12;;;;;;;15.90;9.93;;;21.50;68.40;;;20.95;54.25;100641.97;4969239;28;20034;-76
2023/06/08 07:52:41;;;;;;;24.27;10.68;;;21.60;67.70;;;21.05;53.83;100636.50;4970487;28;20070;-74
2023/06/08 07:55:09;;;;;;;16.48;9.88;;;21.80;67.20;;;21.13;53.55;100645.97;4974586;28;20046;-76
2023/06/08 07:57:37;;;;;;;19.65;9.90;;;21.80;67.00;;;21.21;53.03;100645.38;4973940;28;20129;-80
2023/06/08 08:00:06;;;;;;;16.67;9.75;;;21.90;66.60;;;21.30;53.89;100649.19;4967515;28;20035;-79
2023/06/08 08:02:39;;;;;;;18.45;9.50;;;22.00;67.20;;;21.37;52.73;100643.44;4974343;28;20066;-78
2023/06/08 08:05:09;;;;;;;15.05;8.80;;;22.10;66.00;;;21.37;53.36;100648.06;4980414;28;20385;-78
2023/06/08 08:07:36;;;;;;;13.10;8.52;;;22.10;66.60;;;21.36;52.57;100636.41;4970260;28;20047;-79
2023/06/08 08:10:06;;;;;;;15.23;9.20;;;22.10;65.50;;;21.46;52.34;100640.97;4970465;28;20047;-79
2023/06/08 08:12:33;;;;;;;18.58;9.13;;;22.20;65.20;;;21.53;52.71;100639.56;4970884;28;20069;-79
2023/06/08 08:15:00;;;;;;;17.67;9.73;;;22.20;65.70;;;21.55;52.43;100636.56;4987431;28;20078;-79
2023/06/08 08:17:27;;;;;;;18.50;10.45;;;22.30;65.30;;;21.55;52.22;100640.09;4985961;28;20465;-79
2023/06/08 08:19:55;;;;;;;15.32;8.77;;;22.30;65.00;;;21.52;52.02;100640.66;4969944;28;20074;-79
2023/06/08 08:22:22;;;;;;;19.40;10.27;;;22.30;64.90;;;21.50;51.86;100637.41;4970573;28;20051;-79
2023/06/08 08:24:50;;;;;;;17.40;10.23;;;22.30;64.60;;;21.41;51.93;100641.78;4983006;28;20050;-79
2023/06/08 08:27:18;;;;;;;17.67;9.77;;;22.20;64.70;;;21.44;52.48;100632.28;4971081;28;20047;-79
2023/06/08 08:29:45;;;;;;;19.35;10.38;;;22.20;65.20;;;21.52;52.40;100637.97;4968610;28;20043;-81
2023/06/08 08:32:13;;;;;;;18.20;10.75;;;22.20;65.20;;;21.56;52.34;100638.19;4968757;28;20519;-81
2023/06/08 08:34:40;;;;;;;19.17;11.35;;;22.30;65.00;;;21.55;51.78;100639.28;4973353;28;20038;-80
2023/06/08 08:37:07;;;;;;;23.23;9.82;;;22.30;64.40;;;21.58;51.71;100633.31;4963518;28;20133;-80
2023/06/08 08:39:34;;;;;;;19.25;10.30;;;22.30;64.40;;;21.63;51.77;100636.00;4963678;28;20244;-80
2023/06/08 08:42:07;;;;;;;22.48;10.88;;;22.30;64.40;;;21.64;51.23;100634.09;4957446;28;20049;-81
2023/06/08 08:44:37;;;;;;;19.27;11.23;;;22.30;64.00;;;21.57;51.23;100627.06;4982131;28;20121;-79
2023/06/08 08:47:06;;;;;;;15.65;10.00;;;22.30;63.80;;;21.59;51.13;100624.06;4972101;28;20121;-79
2023/06/08 08:49:40;;;;;;;20.00;10.38;;;22.30;64.00;;;21.63;52.69;100627.03;4977436;28;20049;-79
2023/06/08 08:52:09;;;;;;;20.10;9.88;;;22.30;65.40;;;21.66;52.13;100626.47;4980644;28;20125;-79
2023/06/08 08:54:38;;;;;;;18.67;10.07;;;22.40;65.10;;;21.67;51.52;100622.66;4976622;28;20074;-79
2023/06/08 08:57:08;;;;;;;20.10;9.35;;;22.40;64.20;;;21.73;53.21;100621.53;4968561;28;20131;-79
2023/06/08 08:59:38;;;;;;;15.88;9.85;;;22.40;65.80;;;21.77;51.82;100633.47;4975309;28;20082;-79
2023/06/08 09:02:06;;;;;;;16.73;10.20;;;22.50;64.70;;;21.79;51.35;100629.34;4967669;28;20051;-79
2023/06/08 09:04:33;;;;;;;16.50;10.27;;;22.50;63.90;;;21.80;51.48;100620.13;4969596;28;20038;-79
2023/06/08 09:07:02;;;;;;;20.67;10.40;;;22.50;64.00;;;21.85;51.78;100627.41;4968719;28;20431;-79
2023/06/08 09:09:29;;;;;;;16.35;10.15;;;22.50;64.60;;;21.85;50.77;100630.94;4966042;28;20078;-79
2023/06/08 09:12:00;;;;;;;17.45;10.38;;;22.50;63.30;;;21.85;50.48;100628.22;4951548;28;20389;-79
2023/06/08 09:14:28;;;;;;;16.35;10.27;;;22.50;63.00;;;21.85;50.72;100619.28;4966235;28;20563;-79
2023/06/08 09:16:58;;;;;;;22.83;12.40;;;22.60;63.20;;;21.88;50.53;100615.19;4968563;28;20055;-79
2023/06/08 09:19:27;;;;;;;16.75;10.40;;;22.60;63.10;;;21.86;51.40;100612.75;4967913;28;20046;-79
2023/06/08 09:21:55;;;;;;;20.15;10.70;;;22.60;64.10;;;21.88;51.67;100620.63;4961285;28;20066;-79
2023/06/08 09:24:22;;;;;;;20.48;10.65;;;22.60;64.20;;;21.91;52.11;100610.00;4971098;28;20061;-79
2023/06/08 09:26:53;;;;;;;20.75;11.07;;;22.70;64.60;;;21.97;51.42;100610.78;4967851;28;20054;-79
2023/06/08 09:29:36;;;;;;;22.55;11.88;;;22.70;63.90;;;21.95;51.47;100597.47;4974479;28;20050;-79
2023/06/08 09:32:07;;;;;;;18.65;11.23;;;22.70;64.10;;;22.05;52.10;100597.38;4975908;28;20535;-79
2023/06/08 09:34:50;;;;;;;19.92;10.60;;;22.80;64.80;;;22.07;51.05;100603.34;4961951;28;20047;-79
2023/06/08 09:37:18;;;;;;;19.88;11.27;;;22.80;63.60;;;22.06;50.70;100588.16;4972835;28;20042;-80
2023/06/08 09:39:47;;;;;;;16.25;10.43;;;22.80;63.20;;;22.06;51.58;100595.50;4983377;28;20462;-79
2023/06/08 09:42:14;;;;;;;19.58;9.57;;;22.80;64.10;;;22.11;53.73;100598.19;4972440;28;20133;-77
2023/06/08 09:44:41;;;;;;;18.10;10.70;;;22.90;66.70;;;22.13;51.67;100596.00;4970549;28;20117;-77
2023/06/08 09:47:25;;;;;;;19.20;10.00;;;22.90;64.00;;;22.18;52.18;100592.44;4983994;28;20039;-77
2023/06/08 09:49:53;;;;;;;17.25;10.52;;;22.90;64.60;;;22.23;51.25;100592.38;4983746;28;20042;-77
2023/06/08 09:52:22;;;;;;;18.95;11.18;;;23.00;63.50;;;22.20;51.18;100593.75;4967554;28;20047;-77
2023/06/08 09:54:51;;;;;;;20.60;10.23;;;22.90;63.30;;;22.24;51.32;100594.00;4970438;28;20042;-77
2023/06/08 09:57:20;;;;;;;20.67;10.52;;;23.00;63.60;;;22.24;51.31;100594.00;4980582;28;20388;-77
2023/06/08 09:59:53;;;;;;;17.63;10.27;;;23.00;63.30;;;22.24;51.01;100599.44;4984099;28;20038;-77
2023/06/08 10:02:29;;;;;;;18.80;10.82;;;23.00;63.60;;;22.31;52.07;100597.19;4972011;28;20526;-77
2023/06/08 10:05:01;;;;;;;18.30;10.48;;;23.00;64.30;;;22.33;50.43;100592.28;4971804;28;20451;-77
2023/06/08 10:07:29;;;;;;;18.48;11.00;;;23.10;62.80;;;22.30;50.60;100596.41;4978150;28;20057;-77
2023/06/08 10:10:06;;;;;;;16.17;10.57;;;23.00;62.70;;;22.32;50.62;100593.38;4955163;28;20050;-77
2023/06/08 10:12:34;;;;;;;14.82;10.32;;;23.00;62.80;;;22.35;51.03;100588.19;4971302;28;20055;-77